createdAt,value
2017-10-04T00:00:34.773Z,70.65
2017-10-04T00:01:45.051Z,70.08
2017-10-04T00:02:54.680Z,69.89
2017-10-04T00:04:04.640Z,69.04
2017-10-04T00:05:14.593Z,69.6
2017-10-04T00:06:24.886Z,69.7
2017-10-04T00:07:34.834Z,69.32
2017-10-04T00:08:45.105Z,68.56
2017-10-04T00:09:55.062Z,68.65
2017-10-04T00:11:05.352Z,69.32
2017-10-04T00:12:15.627Z,69.32
2017-10-04T00:13:25.907Z,69.7
2017-10-04T00:14:36.194Z,69.6
2017-10-04T00:15:46.466Z,69.6
2017-10-04T00:16:55.779Z,70.37
2017-10-04T00:18:05.731Z,70.18
2017-10-04T00:19:15.681Z,69.6
2017-10-04T00:20:25.630Z,70.37
2017-10-04T00:21:35.898Z,70.65
2017-10-04T00:22:45.844Z,70.56
2017-10-04T00:23:55.785Z,70.33
2017-10-04T00:25:06.058Z,70.72
2017-10-04T00:26:16.013Z,70.52
2017-10-04T00:27:26.279Z,70.62
2017-10-04T00:28:36.225Z,70.33
2017-10-04T00:29:46.500Z,70.72
2017-10-04T00:30:56.774Z,70.24
2017-10-04T00:32:06.402Z,69.95
2017-10-04T00:33:16.354Z,70.72
2017-10-04T00:34:26.304Z,70.43
2017-10-04T00:35:36.250Z,70.14
2017-10-04T00:36:46.203Z,70.52
2017-10-04T00:37:56.155Z,70.43
2017-10-04T00:39:06.107Z,70.33
2017-10-04T00:40:16.374Z,70.81
2017-10-04T00:41:26.657Z,70.81
2017-10-04T00:42:36.929Z,70.9
2017-10-04T00:43:47.198Z,71.57
2017-10-04T00:44:57.469Z,71
2017-10-04T00:46:07.424Z,71
2017-10-04T00:47:17.691Z,71.09
2017-10-04T00:48:27.964Z,71.19
2017-10-04T00:49:38.233Z,71.53
2017-10-04T00:50:48.503Z,72.39
2017-10-04T00:51:58.452Z,71.63
2017-10-04T00:53:08.326Z,72.3
2017-10-04T00:54:18.280Z,72.2
2017-10-04T00:55:28.548Z,72.3
2017-10-04T00:56:38.493Z,72.58
2017-10-04T00:57:48.437Z,72.67
2017-10-04T00:58:58.706Z,73.25
2017-10-04T01:00:08.653Z,72.96
2017-10-04T01:01:18.602Z,73.15
2017-10-04T01:02:28.551Z,73.63
2017-10-04T01:03:38.509Z,73.44
2017-10-04T01:04:48.779Z,74.1
2017-10-04T01:05:59.046Z,74.01
2017-10-04T01:07:08.352Z,73.72
2017-10-04T01:08:18.299Z,73.63
2017-10-04T01:09:28.570Z,73.44
2017-10-04T01:10:38.836Z,73.34
2017-10-04T01:11:49.104Z,73.53
2017-10-04T01:12:58.088Z,74.2
2017-10-04T01:14:08.357Z,73.34
2017-10-04T01:15:18.313Z,73.59
2017-10-04T01:16:28.587Z,73.44
2017-10-04T01:17:38.860Z,73.15
2017-10-04T01:18:49.127Z,73.44
2017-10-04T01:19:59.398Z,73.44
2017-10-04T01:21:09.675Z,74.2
2017-10-04T01:22:21.948Z,74.92
2017-10-04T01:23:31.896Z,74.82
2017-10-04T01:24:41.849Z,74.82
2017-10-04T01:25:52.115Z,75.11
2017-10-04T01:27:02.383Z,75.49
2017-10-04T01:28:12.010Z,75.59
2017-10-04T01:29:22.278Z,75.96
2017-10-04T01:30:32.553Z,75.68
2017-10-04T01:31:42.828Z,75.68
2017-10-04T01:32:52.780Z,75.96
2017-10-04T01:34:03.051Z,75.87
2017-10-04T01:35:13.328Z,75.49
2017-10-04T01:36:23.609Z,75.4
2017-10-04T01:37:33.884Z,75.4
2017-10-04T01:38:44.157Z,75.68
2017-10-04T01:39:54.101Z,75.68
2017-10-04T01:41:04.372Z,76.06
2017-10-04T01:42:13.676Z,76.16
2017-10-04T01:43:23.945Z,76.54
2017-10-04T01:44:33.893Z,76.35
2017-10-04T01:45:44.173Z,76.44
2017-10-04T01:46:54.123Z,76.35
2017-10-04T01:48:03.751Z,75.78
2017-10-04T01:49:14.034Z,75.96
2017-10-04T01:50:23.984Z,75.87
2017-10-04T01:51:33.925Z,75.59
2017-10-04T01:52:44.196Z,75.68
2017-10-04T01:53:54.468Z,75.3
2017-10-04T01:55:04.748Z,75.3
2017-10-04T01:56:15.026Z,75.68
2017-10-04T01:57:24.973Z,75.59
2017-10-04T01:58:35.248Z,75.49
2017-10-04T01:59:45.199Z,75.3
2017-10-04T02:00:54.828Z,74.92
2017-10-04T02:02:04.784Z,75.49
2017-10-04T02:03:14.415Z,75.59
2017-10-04T02:04:24.365Z,75.59
2017-10-04T02:05:34.642Z,75.49
2017-10-04T02:06:44.911Z,75.87
2017-10-04T02:07:54.855Z,74.26
2017-10-04T02:09:04.488Z,74.29
2017-10-04T02:10:14.761Z,74.2
2017-10-04T02:11:25.033Z,74.26
2017-10-04T02:12:34.982Z,74.35
2017-10-04T02:13:45.254Z,74.58
2017-10-04T02:14:55.522Z,74.96
2017-10-04T02:16:05.797Z,75.53
2017-10-04T02:17:16.065Z,75.81
2017-10-04T02:18:26.334Z,75.59
2017-10-04T02:19:36.604Z,75.96
2017-10-04T02:20:46.549Z,75.68
2017-10-04T02:21:56.177Z,75.3
2017-10-04T02:23:06.123Z,75.59
2017-10-04T02:24:16.390Z,75.78
2017-10-04T02:25:26.663Z,75.49
2017-10-04T02:26:36.931Z,76.16
2017-10-04T02:27:47.198Z,75.78
2017-10-04T02:28:57.151Z,75.78
2017-10-04T02:30:07.107Z,75.68
2017-10-04T02:31:17.066Z,76.06
2017-10-04T02:32:27.350Z,75.68
2017-10-04T02:33:37.296Z,75.96
2017-10-04T02:34:47.568Z,75.68
2017-10-04T02:35:57.521Z,75.68
2017-10-04T02:37:07.469Z,75.78
2017-10-04T02:38:17.431Z,75.68
2017-10-04T02:39:27.391Z,75.96
2017-10-04T02:40:37.339Z,76.25
2017-10-04T02:41:47.615Z,75.59
2017-10-04T02:42:57.570Z,75.68
2017-10-04T02:44:07.516Z,75.78
2017-10-04T02:45:17.466Z,75.49
2017-10-04T02:46:27.412Z,75.4
2017-10-04T02:47:37.685Z,75.4
2017-10-04T02:48:47.958Z,75.49
2017-10-04T02:49:57.263Z,75.11
2017-10-04T02:51:06.891Z,75.05
2017-10-04T02:52:16.848Z,74.77
2017-10-04T02:53:26.804Z,75.43
2017-10-04T02:54:36.433Z,75.72
2017-10-04T02:55:46.705Z,74.87
2017-10-04T02:56:56.663Z,75.05
2017-10-04T02:58:06.940Z,74.1
2017-10-04T02:59:17.211Z,74.77
2017-10-04T03:00:27.156Z,74.77
2017-10-04T03:01:39.205Z,74.87
2017-10-04T03:02:49.482Z,74.67
2017-10-04T03:03:59.107Z,74.96
2017-10-04T03:05:09.381Z,75.15
2017-10-04T03:06:19.690Z,74.67
2017-10-04T03:07:29.962Z,75.34
2017-10-04T03:08:40.236Z,75.24
2017-10-04T03:09:50.506Z,75.81
2017-10-04T03:11:00.781Z,76.01
2017-10-04T03:12:10.734Z,75.91
2017-10-04T03:13:20.683Z,76.44
2017-10-04T03:14:30.953Z,76.73
2017-10-04T03:15:41.234Z,76.63
2017-10-04T03:16:51.503Z,77.01
2017-10-04T03:18:01.454Z,76.35
2017-10-04T03:19:11.731Z,77.3
2017-10-04T03:20:21.683Z,77.77
2017-10-04T03:21:31.947Z,77.68
2017-10-04T03:22:42.217Z,77.87
2017-10-04T03:23:52.486Z,78.44
2017-10-04T03:25:02.768Z,79.11
2017-10-04T03:26:13.043Z,79.49
2017-10-04T03:27:23.313Z,79.39
2017-10-04T03:28:33.586Z,79.77
2017-10-04T03:29:43.856Z,79.68
2017-10-04T03:30:54.145Z,79.77
2017-10-04T03:32:04.422Z,80.24
2017-10-04T03:33:14.708Z,80.21
2017-10-04T03:34:24.972Z,80.77
2017-10-04T03:35:34.920Z,80.49
2017-10-04T03:36:45.193Z,80.21
2017-10-04T03:37:55.461Z,80.58
2017-10-04T03:39:05.728Z,80.87
2017-10-04T03:40:16.001Z,80.96
2017-10-04T03:41:26.267Z,80.77
2017-10-04T03:42:36.540Z,80.3
2017-10-04T03:43:46.815Z,80.58
2017-10-04T03:44:56.767Z,80.87
2017-10-04T03:46:06.720Z,80.87
2017-10-04T03:47:16.344Z,80.77
2017-10-04T03:48:26.618Z,81.06
2017-10-04T03:49:36.896Z,81.63
2017-10-04T03:50:47.165Z,81.16
2017-10-04T03:51:56.791Z,81.54
2017-10-04T03:53:07.070Z,81.63
2017-10-04T03:54:17.018Z,81.73
2017-10-04T03:55:27.289Z,82.1
2017-10-04T03:56:37.564Z,82.29
2017-10-04T03:57:47.835Z,82.49
2017-10-04T03:58:57.782Z,82.39
2017-10-04T04:00:08.054Z,83.06
2017-10-04T04:01:18.012Z,82.68
2017-10-04T04:02:27.959Z,82.77
2017-10-04T04:03:37.902Z,82.96
2017-10-04T04:04:48.169Z,83.34
2017-10-04T04:05:58.444Z,83.06
2017-10-04T04:07:08.392Z,82.96
2017-10-04T04:08:18.662Z,82.87
2017-10-04T04:09:28.928Z,83.34
2017-10-04T04:10:38.873Z,83.15
2017-10-04T04:11:49.145Z,83.34
2017-10-04T04:12:58.775Z,83.44
2017-10-04T04:14:09.049Z,83.34
2017-10-04T04:15:19.322Z,83.44
2017-10-04T04:16:29.303Z,83.62
2017-10-04T04:17:39.573Z,83.91
2017-10-04T04:18:49.840Z,83.62
2017-10-04T04:19:59.786Z,83.53
2017-10-04T04:21:10.050Z,83.15
2017-10-04T04:22:20.325Z,83.06
2017-10-04T04:23:30.594Z,82.96
2017-10-04T04:24:40.863Z,82.77
2017-10-04T04:25:51.165Z,83.15
2017-10-04T04:27:01.113Z,83.15
2017-10-04T04:28:11.387Z,82.68
2017-10-04T04:29:21.655Z,82.96
2017-10-04T04:30:31.605Z,82.39
2017-10-04T04:31:41.868Z,82.39
2017-10-04T04:32:52.137Z,82.96
2017-10-04T04:34:02.088Z,81.82
2017-10-04T04:35:12.363Z,81.92
2017-10-04T04:36:22.312Z,82.58
2017-10-04T04:37:32.263Z,82.49
2017-10-04T04:38:42.217Z,82.58
2017-10-04T04:39:52.490Z,82.1
2017-10-04T04:41:02.757Z,82.39
2017-10-04T04:42:12.708Z,82.87
2017-10-04T04:43:22.976Z,82.77
2017-10-04T04:44:33.244Z,82.39
2017-10-04T04:45:43.509Z,82.29
2017-10-04T04:46:53.464Z,82.58
2017-10-04T04:48:03.734Z,82.49
2017-10-04T04:49:14.002Z,82.29
2017-10-04T04:50:24.284Z,83.06
2017-10-04T04:51:34.558Z,82.39
2017-10-04T04:52:44.821Z,82.96
2017-10-04T04:53:55.080Z,82.68
2017-10-04T04:55:05.038Z,82.68
2017-10-04T04:56:15.316Z,83.06
2017-10-04T04:57:24.936Z,82.29
2017-10-04T04:58:34.886Z,82.77
2017-10-04T04:59:44.835Z,82.49
2017-10-04T05:00:55.106Z,81.54
2017-10-04T05:02:05.380Z,82.68
2017-10-04T05:03:15.010Z,83.06
2017-10-04T05:04:25.284Z,82.58
2017-10-04T05:05:34.908Z,82.01
2017-10-04T05:06:45.179Z,82.49
2017-10-04T05:07:55.445Z,81.73
2017-10-04T05:09:05.393Z,81.82
2017-10-04T05:10:15.673Z,81.82
2017-10-04T05:11:25.621Z,81.35
2017-10-04T05:12:35.889Z,81.63
2017-10-04T05:13:46.162Z,81.44
2017-10-04T05:14:56.430Z,81.16
2017-10-04T05:16:06.700Z,80.87
2017-10-04T05:17:16.323Z,80.58
2017-10-04T05:18:26.271Z,80.58
2017-10-04T05:19:36.223Z,80.87
2017-10-04T05:20:46.493Z,80.3
2017-10-04T05:21:56.447Z,81.25
2017-10-04T05:23:06.733Z,81.82
2017-10-04T05:24:17.003Z,81.73
2017-10-04T05:25:26.955Z,81.35
2017-10-04T05:26:37.225Z,81.54
2017-10-04T05:27:47.504Z,81.16
2017-10-04T05:28:57.771Z,81.44
2017-10-04T05:30:08.050Z,82.01
2017-10-04T05:31:17.998Z,82.39
2017-10-04T05:32:27.945Z,82.01
2017-10-04T05:33:37.900Z,81.92
2017-10-04T05:34:47.888Z,81.82
2017-10-04T05:35:57.838Z,82.01
2017-10-04T05:37:07.801Z,82.2
2017-10-04T05:38:17.746Z,81.35
2017-10-04T05:39:28.015Z,81.35
2017-10-04T05:40:38.287Z,81.16
2017-10-04T05:41:48.236Z,81.44
2017-10-04T05:42:57.860Z,81.73
2017-10-04T05:44:07.809Z,81.92
2017-10-04T05:45:17.758Z,81.54
2017-10-04T05:46:28.047Z,81.35
2017-10-04T05:47:38.322Z,81.63
2017-10-04T05:48:48.275Z,81.82
2017-10-04T05:49:58.229Z,82.2
2017-10-04T05:51:07.549Z,82.1
2017-10-04T05:52:17.818Z,81.54
2017-10-04T05:53:28.086Z,81.54
2017-10-04T05:54:38.031Z,81.44
2017-10-04T05:55:47.661Z,81.06
2017-10-04T05:56:57.286Z,81.73
2017-10-04T05:58:07.239Z,81.44
2017-10-04T05:59:16.866Z,81.35
2017-10-04T06:00:26.818Z,81.44
2017-10-04T06:01:37.126Z,81.16
2017-10-04T06:02:47.414Z,80.77
2017-10-04T06:03:57.356Z,80.77
2017-10-04T06:05:07.629Z,80.77
2017-10-04T06:06:16.980Z,80.77
2017-10-04T06:07:27.249Z,80.68
2017-10-04T06:08:37.525Z,80.87
2017-10-04T06:09:47.471Z,80.21
2017-10-04T06:10:57.102Z,80.68
2017-10-04T06:12:07.044Z,80.34
2017-10-04T06:13:17.320Z,79.54
2017-10-04T06:14:27.266Z,79.54
2017-10-04T06:15:37.547Z,79.86
2017-10-04T06:16:47.817Z,79.86
2017-10-04T06:17:57.773Z,79.49
2017-10-04T06:19:07.722Z,79.39
2017-10-04T06:20:17.665Z,79.3
2017-10-04T06:21:27.945Z,79.77
2017-10-04T06:22:37.578Z,79.68
2017-10-04T06:23:47.847Z,79.77
2017-10-04T06:24:58.113Z,79.58
2017-10-04T06:26:08.059Z,79.86
2017-10-04T06:27:17.362Z,80.15
2017-10-04T06:28:27.635Z,78.82
